sensor_id;sensor_type;location;lat;lon;timestamp;temperature;humidity
57857;DHT22;43683;48.650;9.290;2023-06-19T00:02:14;21.20;53.40
57857;DHT22;43683;48.650;9.290;2023-06-19T00:04:40;21.20;53.40
57857;DHT22;43683;48.650;9.290;2023-06-19T00:07:05;21.30;53.40
57857;DHT22;43683;48.650;9.290;2023-06-19T00:09:32;21.20;53.20
57857;DHT22;43683;48.650;9.290;2023-06-19T00:11:58;21.30;53.30
57857;DHT22;43683;48.650;9.290;2023-06-19T00:14:25;21.30;53.10
57857;DHT22;43683;48.650;9.290;2023-06-19T00:16:50;21.30;53.10
57857;DHT22;43683;48.650;9.290;2023-06-19T00:19:16;21.30;53.20
57857;DHT22;43683;48.650;9.290;2023-06-19T00:21:42;21.20;53.20
57857;DHT22;43683;48.650;9.290;2023-06-19T00:24:08;21.20;53.40
57857;DHT22;43683;48.650;9.290;2023-06-19T00:26:34;21.00;53.70
57857;DHT22;43683;48.650;9.290;2023-06-19T00:29:00;21.00;53.90
57857;DHT22;43683;48.650;9.290;2023-06-19T00:31:25;21.00;53.90
57857;DHT22;43683;48.650;9.290;2023-06-19T00:33:53;20.90;53.90
57857;DHT22;43683;48.650;9.290;2023-06-19T00:36:18;20.90;53.90
57857;DHT22;43683;48.650;9.290;2023-06-19T00:38:48;20.90;54.60
57857;DHT22;43683;48.650;9.290;2023-06-19T00:41:15;21.00;53.80
57857;DHT22;43683;48.650;9.290;2023-06-19T00:43:41;21.10;53.70
57857;DHT22;43683;48.650;9.290;2023-06-19T00:46:07;21.20;53.50
57857;DHT22;43683;48.650;9.290;2023-06-19T00:48:33;21.20;53.40
57857;DHT22;43683;48.650;9.290;2023-06-19T00:50:59;21.30;53.40
57857;DHT22;43683;48.650;9.290;2023-06-19T00:53:26;21.30;53.40
57857;DHT22;43683;48.650;9.290;2023-06-19T00:55:53;21.30;53.50
57857;DHT22;43683;48.650;9.290;2023-06-19T00:58:20;21.40;53.60
57857;DHT22;43683;48.650;9.290;2023-06-19T01:00:46;21.30;53.80
57857;DHT22;43683;48.650;9.290;2023-06-19T01:03:11;21.30;54.00
57857;DHT22;43683;48.650;9.290;2023-06-19T01:05:37;21.30;54.00
57857;DHT22;43683;48.650;9.290;2023-06-19T01:10:58;21.40;54.10
57857;DHT22;43683;48.650;9.290;2023-06-19T01:13:37;21.40;54.00
57857;DHT22;43683;48.650;9.290;2023-06-19T01:16:04;21.50;54.20
57857;DHT22;43683;48.650;9.290;2023-06-19T01:18:30;21.50;53.90
57857;DHT22;43683;48.650;9.290;2023-06-19T01:21:07;21.50;53.90
57857;DHT22;43683;48.650;9.290;2023-06-19T01:23:33;21.50;53.90
57857;DHT22;43683;48.650;9.290;2023-06-19T01:25:59;21.50;53.90
57857;DHT22;43683;48.650;9.290;2023-06-19T01:28:24;21.50;54.00
57857;DHT22;43683;48.650;9.290;2023-06-19T01:30:52;21.50;54.00
57857;DHT22;43683;48.650;9.290;2023-06-19T01:33:28;21.60;54.10
57857;DHT22;43683;48.650;9.290;2023-06-19T01:35:57;21.50;54.60
57857;DHT22;43683;48.650;9.290;2023-06-19T01:38:24;21.50;54.20
57857;DHT22;43683;48.650;9.290;2023-06-19T01:40:52;21.50;54.40
57857;DHT22;43683;48.650;9.290;2023-06-19T01:43:18;21.40;54.60
57857;DHT22;43683;48.650;9.290;2023-06-19T01:45:44;21.20;54.80
57857;DHT22;43683;48.650;9.290;2023-06-19T01:48:10;21.20;55.20
57857;DHT22;43683;48.650;9.290;2023-06-19T01:50:36;21.00;55.40
57857;DHT22;43683;48.650;9.290;2023-06-19T01:53:01;20.90;55.80
57857;DHT22;43683;48.650;9.290;2023-06-19T01:55:27;20.70;56.30
57857;DHT22;43683;48.650;9.290;2023-06-19T01:57:53;20.60;56.70
57857;DHT22;43683;48.650;9.290;2023-06-19T02:00:18;20.50;56.90
57857;DHT22;43683;48.650;9.290;2023-06-19T02:02:44;20.50;57.00
57857;DHT22;43683;48.650;9.290;2023-06-19T02:05:10;20.40;56.90
57857;DHT22;43683;48.650;9.290;2023-06-19T02:07:35;20.50;56.70
57857;DHT22;43683;48.650;9.290;2023-06-19T02:10:01;20.60;56.40
57857;DHT22;43683;48.650;9.290;2023-06-19T02:12:27;20.70;56.10
57857;DHT22;43683;48.650;9.290;2023-06-19T02:14:52;20.80;56.00
57857;DHT22;43683;48.650;9.290;2023-06-19T02:17:18;20.80;55.80
57857;DHT22;43683;48.650;9.290;2023-06-19T02:19:43;20.70;56.00
57857;DHT22;43683;48.650;9.290;2023-06-19T02:22:09;20.70;56.20
57857;DHT22;43683;48.650;9.290;2023-06-19T02:24:34;20.70;56.30
57857;DHT22;43683;48.650;9.290;2023-06-19T02:27:00;20.70;56.40
57857;DHT22;43683;48.650;9.290;2023-06-19T02:29:27;20.70;56.40
57857;DHT22;43683;48.650;9.290;2023-06-19T02:31:55;20.70;56.30
57857;DHT22;43683;48.650;9.290;2023-06-19T02:34:20;20.70;56.40
57857;DHT22;43683;48.650;9.290;2023-06-19T02:36:46;20.70;56.50
57857;DHT22;43683;48.650;9.290;2023-06-19T02:39:12;20.70;56.60
57857;DHT22;43683;48.650;9.290;2023-06-19T02:41:38;20.60;56.80
57857;DHT22;43683;48.650;9.290;2023-06-19T02:44:04;20.60;57.10
57857;DHT22;43683;48.650;9.290;2023-06-19T02:46:29;20.50;57.20
57857;DHT22;43683;48.650;9.290;2023-06-19T02:48:55;20.50;57.30
57857;DHT22;43683;48.650;9.290;2023-06-19T02:51:20;20.50;57.40
57857;DHT22;43683;48.650;9.290;2023-06-19T02:53:46;20.50;57.40
57857;DHT22;43683;48.650;9.290;2023-06-19T02:56:12;20.50;57.50
57857;DHT22;43683;48.650;9.290;2023-06-19T02:58:38;20.50;57.70
57857;DHT22;43683;48.650;9.290;2023-06-19T03:01:04;20.40;57.80
57857;DHT22;43683;48.650;9.290;2023-06-19T03:03:32;20.30;57.90
57857;DHT22;43683;48.650;9.290;2023-06-19T03:06:05;20.30;58.10
57857;DHT22;43683;48.650;9.290;2023-06-19T03:08:33;20.30;58.20
57857;DHT22;43683;48.650;9.290;2023-06-19T03:10:59;20.30;58.30
57857;DHT22;43683;48.650;9.290;2023-06-19T03:13:25;20.30;58.30
57857;DHT22;43683;48.650;9.290;2023-06-19T03:15:50;20.30;58.30
57857;DHT22;43683;48.650;9.290;2023-06-19T03:18:16;20.30;59.20
57857;DHT22;43683;48.650;9.290;2023-06-19T03:20:41;20.30;58.50
57857;DHT22;43683;48.650;9.290;2023-06-19T03:23:07;20.30;58.60
57857;DHT22;43683;48.650;9.290;2023-06-19T03:25:32;20.30;58.70
57857;DHT22;43683;48.650;9.290;2023-06-19T03:27:58;20.30;58.80
57857;DHT22;43683;48.650;9.290;2023-06-19T03:30:24;20.30;58.70
57857;DHT22;43683;48.650;9.290;2023-06-19T03:32:49;20.30;58.90
57857;DHT22;43683;48.650;9.290;2023-06-19T03:35:15;20.30;58.90
57857;DHT22;43683;48.650;9.290;2023-06-19T03:37:41;20.30;59.00
57857;DHT22;43683;48.650;9.290;2023-06-19T03:40:07;20.30;59.20
57857;DHT22;43683;48.650;9.290;2023-06-19T03:42:34;20.30;59.30
57857;DHT22;43683;48.650;9.290;2023-06-19T03:45:00;20.30;59.30
57857;DHT22;43683;48.650;9.290;2023-06-19T03:47:25;20.30;59.40
57857;DHT22;43683;48.650;9.290;2023-06-19T03:49:51;20.30;59.30
57857;DHT22;43683;48.650;9.290;2023-06-19T03:52:16;20.30;59.40
57857;DHT22;43683;48.650;9.290;2023-06-19T03:54:42;20.30;59.60
57857;DHT22;43683;48.650;9.290;2023-06-19T03:57:08;20.30;59.60
57857;DHT22;43683;48.650;9.290;2023-06-19T03:59:34;20.30;59.80
57857;DHT22;43683;48.650;9.290;2023-06-19T04:01:59;20.30;59.80
57857;DHT22;43683;48.650;9.290;2023-06-19T04:04:25;20.30;59.80
57857;DHT22;43683;48.650;9.290;2023-06-19T04:06:50;20.40;59.90
57857;DHT22;43683;48.650;9.290;2023-06-19T04:09:16;20.40;60.00
57857;DHT22;43683;48.650;9.290;2023-06-19T04:11:41;20.30;60.10
57857;DHT22;43683;48.650;9.290;2023-06-19T04:14:07;20.30;60.40
57857;DHT22;43683;48.650;9.290;2023-06-19T04:16:32;20.20;60.90
57857;DHT22;43683;48.650;9.290;2023-06-19T04:18:58;20.10;61.10
57857;DHT22;43683;48.650;9.290;2023-06-19T04:21:25;20.10;61.10
57857;DHT22;43683;48.650;9.290;2023-06-19T04:23:51;20.20;61.00
57857;DHT22;43683;48.650;9.290;2023-06-19T04:26:17;20.20;60.80
57857;DHT22;43683;48.650;9.290;2023-06-19T04:28:44;20.30;60.80
57857;DHT22;43683;48.650;9.290;2023-06-19T04:31:10;20.40;60.60
57857;DHT22;43683;48.650;9.290;2023-06-19T04:33:35;20.50;60.40
57857;DHT22;43683;48.650;9.290;2023-06-19T04:36:01;20.50;60.20
57857;DHT22;43683;48.650;9.290;2023-06-19T04:38:26;20.50;60.20
57857;DHT22;43683;48.650;9.290;2023-06-19T04:40:52;20.60;60.40
57857;DHT22;43683;48.650;9.290;2023-06-19T04:43:18;20.50;60.30
57857;DHT22;43683;48.650;9.290;2023-06-19T04:45:44;20.50;60.50
57857;DHT22;43683;48.650;9.290;2023-06-19T04:48:09;20.40;60.60
57857;DHT22;43683;48.650;9.290;2023-06-19T04:50:35;20.50;60.80
57857;DHT22;43683;48.650;9.290;2023-06-19T04:53:01;20.60;60.80
57857;DHT22;43683;48.650;9.290;2023-06-19T04:55:27;20.70;60.80
57857;DHT22;43683;48.650;9.290;2023-06-19T04:57:52;20.80;60.50
57857;DHT22;43683;48.650;9.290;2023-06-19T05:00:18;21.00;60.10
57857;DHT22;43683;48.650;9.290;2023-06-19T05:02:49;21.20;59.80
57857;DHT22;43683;48.650;9.290;2023-06-19T05:05:15;21.20;59.50
57857;DHT22;43683;48.650;9.290;2023-06-19T05:07:41;21.30;59.50
57857;DHT22;43683;48.650;9.290;2023-06-19T05:10:08;21.30;59.50
57857;DHT22;43683;48.650;9.290;2023-06-19T05:12:35;21.30;59.50
57857;DHT22;43683;48.650;9.290;2023-06-19T05:15:01;21.40;59.40
57857;DHT22;43683;48.650;9.290;2023-06-19T05:17:26;21.40;59.40
57857;DHT22;43683;48.650;9.290;2023-06-19T05:19:52;21.40;59.40
57857;DHT22;43683;48.650;9.290;2023-06-19T05:22:17;21.30;59.50
57857;DHT22;43683;48.650;9.290;2023-06-19T05:24:44;21.30;59.80
57857;DHT22;43683;48.650;9.290;2023-06-19T05:27:10;21.30;59.90
57857;DHT22;43683;48.650;9.290;2023-06-19T05:29:35;21.30;60.10
57857;DHT22;43683;48.650;9.290;2023-06-19T05:32:01;21.30;60.10
57857;DHT22;43683;48.650;9.290;2023-06-19T05:34:27;21.40;60.70
57857;DHT22;43683;48.650;9.290;2023-06-19T05:36:52;21.50;59.70
57857;DHT22;43683;48.650;9.290;2023-06-19T05:39:18;21.60;59.70
57857;DHT22;43683;48.650;9.290;2023-06-19T05:41:44;21.70;59.50
57857;DHT22;43683;48.650;9.290;2023-06-19T05:44:11;21.80;59.40
57857;DHT22;43683;48.650;9.290;2023-06-19T05:46:40;21.90;59.30
57857;DHT22;43683;48.650;9.290;2023-06-19T05:49:06;22.00;59.20
57857;DHT22;43683;48.650;9.290;2023-06-19T05:51:31;22.10;58.90
57857;DHT22;43683;48.650;9.290;2023-06-19T05:53:57;22.30;58.50
57857;DHT22;43683;48.650;9.290;2023-06-19T05:56:28;22.50;58.10
57857;DHT22;43683;48.650;9.290;2023-06-19T05:58:54;22.60;58.00
57857;DHT22;43683;48.650;9.290;2023-06-19T06:01:19;22.60;58.00
57857;DHT22;43683;48.650;9.290;2023-06-19T06:03:45;22.70;57.90
57857;DHT22;43683;48.650;9.290;2023-06-19T06:06:10;22.70;57.90
57857;DHT22;43683;48.650;9.290;2023-06-19T06:08:36;22.80;57.70
57857;DHT22;43683;48.650;9.290;2023-06-19T06:11:02;22.90;57.50
57857;DHT22;43683;48.650;9.290;2023-06-19T06:13:27;23.00;57.60
57857;DHT22;43683;48.650;9.290;2023-06-19T06:15:53;23.00;57.60
57857;DHT22;43683;48.650;9.290;2023-06-19T06:18:19;23.00;58.30
57857;DHT22;43683;48.650;9.290;2023-06-19T06:20:45;23.00;57.80
57857;DHT22;43683;48.650;9.290;2023-06-19T06:23:10;23.10;57.70
57857;DHT22;43683;48.650;9.290;2023-06-19T06:25:36;23.20;57.60
57857;DHT22;43683;48.650;9.290;2023-06-19T06:28:01;23.30;57.30
57857;DHT22;43683;48.650;9.290;2023-06-19T06:30:27;23.30;57.30
57857;DHT22;43683;48.650;9.290;2023-06-19T06:32:55;23.40;57.10
57857;DHT22;43683;48.650;9.290;2023-06-19T06:35:21;23.60;56.50
57857;DHT22;43683;48.650;9.290;2023-06-19T06:37:46;23.90;55.70
57857;DHT22;43683;48.650;9.290;2023-06-19T06:40:14;24.20;55.10
57857;DHT22;43683;48.650;9.290;2023-06-19T06:42:40;24.40;54.80
57857;DHT22;43683;48.650;9.290;2023-06-19T06:45:06;24.70;54.40
57857;DHT22;43683;48.650;9.290;2023-06-19T06:47:32;25.00;54.00
57857;DHT22;43683;48.650;9.290;2023-06-19T06:49:58;25.10;53.50
57857;DHT22;43683;48.650;9.290;2023-06-19T06:52:23;25.30;53.30
57857;DHT22;43683;48.650;9.290;2023-06-19T06:54:49;25.50;53.10
57857;DHT22;43683;48.650;9.290;2023-06-19T06:57:15;25.60;52.80
57857;DHT22;43683;48.650;9.290;2023-06-19T06:59:41;25.50;52.80
57857;DHT22;43683;48.650;9.290;2023-06-19T07:02:06;25.40;53.00
57857;DHT22;43683;48.650;9.290;2023-06-19T07:04:32;25.40;53.30
57857;DHT22;43683;48.650;9.290;2023-06-19T07:06:58;25.20;53.60
57857;DHT22;43683;48.650;9.290;2023-06-19T07:09:23;25.10;53.80
57857;DHT22;43683;48.650;9.290;2023-06-19T07:11:49;25.10;53.80
57857;DHT22;43683;48.650;9.290;2023-06-19T07:14:15;25.30;53.50
57857;DHT22;43683;48.650;9.290;2023-06-19T07:16:46;25.80;52.70
57857;DHT22;43683;48.650;9.290;2023-06-19T07:19:12;26.20;52.10
57857;DHT22;43683;48.650;9.290;2023-06-19T07:21:38;26.70;51.40
57857;DHT22;43683;48.650;9.290;2023-06-19T07:24:04;27.00;50.80
57857;DHT22;43683;48.650;9.290;2023-06-19T07:26:30;26.90;50.70
57857;DHT22;43683;48.650;9.290;2023-06-19T07:28:56;26.90;50.90
57857;DHT22;43683;48.650;9.290;2023-06-19T07:31:21;27.00;50.90
57857;DHT22;43683;48.650;9.290;2023-06-19T07:33:47;27.30;50.60
57857;DHT22;43683;48.650;9.290;2023-06-19T07:36:12;27.40;50.40
57857;DHT22;43683;48.650;9.290;2023-06-19T07:38:40;27.70;50.20
57857;DHT22;43683;48.650;9.290;2023-06-19T07:41:06;27.90;49.50
57857;DHT22;43683;48.650;9.290;2023-06-19T07:43:33;27.70;49.40
57857;DHT22;43683;48.650;9.290;2023-06-19T07:45:58;27.40;49.40
57857;DHT22;43683;48.650;9.290;2023-06-19T07:48:24;27.50;49.30
57857;DHT22;43683;48.650;9.290;2023-06-19T07:50:50;28.00;48.80
57857;DHT22;43683;48.650;9.290;2023-06-19T07:53:15;28.60;48.20
57857;DHT22;43683;48.650;9.290;2023-06-19T07:55:41;29.10;47.40
57857;DHT22;43683;48.650;9.290;2023-06-19T07:58:07;30.10;46.10
57857;DHT22;43683;48.650;9.290;2023-06-19T08:00:32;30.50;44.90
57857;DHT22;43683;48.650;9.290;2023-06-19T08:02:58;29.90;44.80
57857;DHT22;43683;48.650;9.290;2023-06-19T08:05:23;29.30;45.30
57857;DHT22;43683;48.650;9.290;2023-06-19T08:07:49;28.90;45.80
57857;DHT22;43683;48.650;9.290;2023-06-19T08:10:15;28.80;46.00
57857;DHT22;43683;48.650;9.290;2023-06-19T08:12:44;28.80;46.00
57857;DHT22;43683;48.650;9.290;2023-06-19T08:15:12;28.60;45.90
57857;DHT22;43683;48.650;9.290;2023-06-19T08:17:41;28.60;45.70
57857;DHT22;43683;48.650;9.290;2023-06-19T08:20:08;28.60;45.50
57857;DHT22;43683;48.650;9.290;2023-06-19T08:22:34;28.90;45.00
57857;DHT22;43683;48.650;9.290;2023-06-19T08:24:59;29.40;44.30
57857;DHT22;43683;48.650;9.290;2023-06-19T08:27:25;29.80;43.60
57857;DHT22;43683;48.650;9.290;2023-06-19T08:29:51;29.90;43.50
57857;DHT22;43683;48.650;9.290;2023-06-19T08:32:16;29.90;43.10
57857;DHT22;43683;48.650;9.290;2023-06-19T08:34:42;30.10;42.90
57857;DHT22;43683;48.650;9.290;2023-06-19T08:37:08;30.40;42.20
57857;DHT22;43683;48.650;9.290;2023-06-19T08:39:33;30.90;41.50
57857;DHT22;43683;48.650;9.290;2023-06-19T08:41:59;31.30;40.80
57857;DHT22;43683;48.650;9.290;2023-06-19T08:44:25;31.30;40.70
57857;DHT22;43683;48.650;9.290;2023-06-19T08:46:51;30.80;41.00
57857;DHT22;43683;48.650;9.290;2023-06-19T08:49:16;30.50;41.30
57857;DHT22;43683;48.650;9.290;2023-06-19T08:51:42;30.60;40.80
57857;DHT22;43683;48.650;9.290;2023-06-19T08:54:07;30.80;40.60
57857;DHT22;43683;48.650;9.290;2023-06-19T08:56:34;30.70;40.80
57857;DHT22;43683;48.650;9.290;2023-06-19T08:59:16;30.60;40.80
57857;DHT22;43683;48.650;9.290;2023-06-19T09:01:50;30.80;40.60
57857;DHT22;43683;48.650;9.290;2023-06-19T09:04:21;30.90;40.20
57857;DHT22;43683;48.650;9.290;2023-06-19T09:06:51;31.10;40.40
57857;DHT22;43683;48.650;9.290;2023-06-19T09:09:18;31.30;40.30
57857;DHT22;43683;48.650;9.290;2023-06-19T09:12:03;31.20;40.30
57857;DHT22;43683;48.650;9.290;2023-06-19T09:14:36;31.20;40.00
57857;DHT22;43683;48.650;9.290;2023-06-19T09:17:12;30.90;40.10
57857;DHT22;43683;48.650;9.290;2023-06-19T09:19:38;30.40;41.20
57857;DHT22;43683;48.650;9.290;2023-06-19T09:22:07;30.50;41.10
57857;DHT22;43683;48.650;9.290;2023-06-19T09:24:40;30.80;40.80
57857;DHT22;43683;48.650;9.290;2023-06-19T09:27:10;30.90;40.50
57857;DHT22;43683;48.650;9.290;2023-06-19T09:29:39;31.40;40.00
57857;DHT22;43683;48.650;9.290;2023-06-19T09:34:40;32.10;39.50
57857;DHT22;43683;48.650;9.290;2023-06-19T09:37:06;32.40;39.20
57857;DHT22;43683;48.650;9.290;2023-06-19T09:39:34;32.20;39.40
57857;DHT22;43683;48.650;9.290;2023-06-19T09:41:59;31.80;39.30
57857;DHT22;43683;48.650;9.290;2023-06-19T09:44:26;31.50;40.00
57857;DHT22;43683;48.650;9.290;2023-06-19T09:46:54;31.40;39.70
57857;DHT22;43683;48.650;9.290;2023-06-19T09:49:21;31.20;39.80
57857;DHT22;43683;48.650;9.290;2023-06-19T09:51:50;30.90;39.70
57857;DHT22;43683;48.650;9.290;2023-06-19T09:54:17;30.80;39.30
57857;DHT22;43683;48.650;9.290;2023-06-19T09:56:43;30.50;39.00
57857;DHT22;43683;48.650;9.290;2023-06-19T09:59:09;30.50;38.70
57857;DHT22;43683;48.650;9.290;2023-06-19T10:01:35;30.30;38.60
57857;DHT22;43683;48.650;9.290;2023-06-19T10:04:04;30.30;38.40
57857;DHT22;43683;48.650;9.290;2023-06-19T10:06:30;30.30;38.20
57857;DHT22;43683;48.650;9.290;2023-06-19T10:08:56;30.30;38.00
57857;DHT22;43683;48.650;9.290;2023-06-19T10:11:50;30.30;37.70
57857;DHT22;43683;48.650;9.290;2023-06-19T10:14:17;30.50;37.30
57857;DHT22;43683;48.650;9.290;2023-06-19T10:16:44;30.80;37.30
57857;DHT22;43683;48.650;9.290;2023-06-19T10:19:18;30.70;37.50
57857;DHT22;43683;48.650;9.290;2023-06-19T10:21:48;30.50;38.10
57857;DHT22;43683;48.650;9.290;2023-06-19T10:24:16;31.00;37.80
57857;DHT22;43683;48.650;9.290;2023-06-19T10:26:44;31.30;37.70
57857;DHT22;43683;48.650;9.290;2023-06-19T10:29:20;31.80;37.20
57857;DHT22;43683;48.650;9.290;2023-06-19T10:31:45;32.00;37.20
57857;DHT22;43683;48.650;9.290;2023-06-19T10:34:11;32.20;37.10
57857;DHT22;43683;48.650;9.290;2023-06-19T10:36:37;32.30;36.80
57857;DHT22;43683;48.650;9.290;2023-06-19T10:39:03;32.40;36.70
57857;DHT22;43683;48.650;9.290;2023-06-19T10:41:29;32.30;36.70
57857;DHT22;43683;48.650;9.290;2023-06-19T10:44:07;32.30;36.80
57857;DHT22;43683;48.650;9.290;2023-06-19T10:46:37;32.60;36.30
57857;DHT22;43683;48.650;9.290;2023-06-19T10:49:05;32.80;36.10
57857;DHT22;43683;48.650;9.290;2023-06-19T10:51:34;32.80;35.70
57857;DHT22;43683;48.650;9.290;2023-06-19T10:53:59;32.70;36.10
57857;DHT22;43683;48.650;9.290;2023-06-19T10:56:25;32.90;36.00
57857;DHT22;43683;48.650;9.290;2023-06-19T10:59:01;33.10;35.90
57857;DHT22;43683;48.650;9.290;2023-06-19T11:01:37;33.40;35.90
57857;DHT22;43683;48.650;9.290;2023-06-19T11:04:07;33.20;35.90
57857;DHT22;43683;48.650;9.290;2023-06-19T11:06:34;32.90;35.80
57857;DHT22;43683;48.650;9.290;2023-06-19T11:08:59;32.50;36.00
57857;DHT22;43683;48.650;9.290;2023-06-19T11:11:43;32.20;36.10
57857;DHT22;43683;48.650;9.290;2023-06-19T11:14:11;32.00;35.90
57857;DHT22;43683;48.650;9.290;2023-06-19T11:16:39;31.90;36.60
57857;DHT22;43683;48.650;9.290;2023-06-19T11:19:08;31.90;36.30
57857;DHT22;43683;48.650;9.290;2023-06-19T11:21:36;32.10;36.20
57857;DHT22;43683;48.650;9.290;2023-06-19T11:24:11;32.30;35.70
57857;DHT22;43683;48.650;9.290;2023-06-19T11:26:38;32.40;35.20
57857;DHT22;43683;48.650;9.290;2023-06-19T11:29:25;32.30;35.50
57857;DHT22;43683;48.650;9.290;2023-06-19T11:31:54;32.00;35.90
57857;DHT22;43683;48.650;9.290;2023-06-19T11:34:30;32.40;36.00
57857;DHT22;43683;48.650;9.290;2023-06-19T11:36:56;33.20;35.00
57857;DHT22;43683;48.650;9.290;2023-06-19T11:39:22;33.60;34.50
57857;DHT22;43683;48.650;9.290;2023-06-19T11:41:47;33.60;34.40
57857;DHT22;43683;48.650;9.290;2023-06-19T11:44:13;33.40;34.50
57857;DHT22;43683;48.650;9.290;2023-06-19T11:46:38;33.00;35.00
57857;DHT22;43683;48.650;9.290;2023-06-19T11:49:12;32.30;35.60
57857;DHT22;43683;48.650;9.290;2023-06-19T11:51:38;31.90;35.60
57857;DHT22;43683;48.650;9.290;2023-06-19T11:54:09;31.80;35.90
57857;DHT22;43683;48.650;9.290;2023-06-19T11:56:38;31.60;35.80
57857;DHT22;43683;48.650;9.290;2023-06-19T11:59:04;31.70;35.60
57857;DHT22;43683;48.650;9.290;2023-06-19T12:01:31;31.50;35.80
57857;DHT22;43683;48.650;9.290;2023-06-19T12:03:57;31.30;36.00
57857;DHT22;43683;48.650;9.290;2023-06-19T12:06:23;31.50;36.10
57857;DHT22;43683;48.650;9.290;2023-06-19T12:08:48;32.10;35.60
57857;DHT22;43683;48.650;9.290;2023-06-19T12:11:14;32.60;35.30
57857;DHT22;43683;48.650;9.290;2023-06-19T12:13:40;33.10;34.90
57857;DHT22;43683;48.650;9.290;2023-06-19T12:16:06;33.30;34.90
57857;DHT22;43683;48.650;9.290;2023-06-19T12:18:32;33.50;34.40
57857;DHT22;43683;48.650;9.290;2023-06-19T12:20:57;33.40;34.70
57857;DHT22;43683;48.650;9.290;2023-06-19T12:23:23;33.30;35.00
57857;DHT22;43683;48.650;9.290;2023-06-19T12:25:48;33.70;34.70
57857;DHT22;43683;48.650;9.290;2023-06-19T12:28:14;34.10;34.50
57857;DHT22;43683;48.650;9.290;2023-06-19T12:30:43;34.20;34.20
57857;DHT22;43683;48.650;9.290;2023-06-19T12:33:10;34.60;33.90
57857;DHT22;43683;48.650;9.290;2023-06-19T12:35:40;34.80;33.50
57857;DHT22;43683;48.650;9.290;2023-06-19T12:38:07;34.80;33.20
57857;DHT22;43683;48.650;9.290;2023-06-19T12:40:32;35.10;32.90
57857;DHT22;43683;48.650;9.290;2023-06-19T12:42:58;35.00;32.90
57857;DHT22;43683;48.650;9.290;2023-06-19T12:45:24;34.70;33.20
57857;DHT22;43683;48.650;9.290;2023-06-19T12:47:49;34.40;33.20
57857;DHT22;43683;48.650;9.290;2023-06-19T12:50:15;33.90;33.80
57857;DHT22;43683;48.650;9.290;2023-06-19T12:52:40;33.60;34.00
57857;DHT22;43683;48.650;9.290;2023-06-19T12:55:06;33.90;34.00
57857;DHT22;43683;48.650;9.290;2023-06-19T12:57:32;34.20;33.60
57857;DHT22;43683;48.650;9.290;2023-06-19T12:59:58;34.20;33.50
57857;DHT22;43683;48.650;9.290;2023-06-19T13:02:23;34.60;33.40
57857;DHT22;43683;48.650;9.290;2023-06-19T13:04:49;35.00;33.30
57857;DHT22;43683;48.650;9.290;2023-06-19T13:07:14;35.30;32.80
57857;DHT22;43683;48.650;9.290;2023-06-19T13:09:41;35.40;32.50
57857;DHT22;43683;48.650;9.290;2023-06-19T13:12:06;35.30;32.60
57857;DHT22;43683;48.650;9.290;2023-06-19T13:14:32;35.30;32.50
57857;DHT22;43683;48.650;9.290;2023-06-19T13:16:58;35.40;32.40
57857;DHT22;43683;48.650;9.290;2023-06-19T13:19:24;34.80;32.80
57857;DHT22;43683;48.650;9.290;2023-06-19T13:21:50;34.40;33.00
57857;DHT22;43683;48.650;9.290;2023-06-19T13:24:16;34.20;33.00
57857;DHT22;43683;48.650;9.290;2023-06-19T13:26:43;34.00;33.20
57857;DHT22;43683;48.650;9.290;2023-06-19T13:29:08;34.10;32.90
57857;DHT22;43683;48.650;9.290;2023-06-19T13:31:34;34.50;32.80
57857;DHT22;43683;48.650;9.290;2023-06-19T13:34:00;35.20;32.20
57857;DHT22;43683;48.650;9.290;2023-06-19T13:36:25;35.40;31.90
57857;DHT22;43683;48.650;9.290;2023-06-19T13:38:52;35.50;31.70
57857;DHT22;43683;48.650;9.290;2023-06-19T13:41:18;35.60;31.30
57857;DHT22;43683;48.650;9.290;2023-06-19T13:43:44;35.30;31.50
57857;DHT22;43683;48.650;9.290;2023-06-19T13:46:11;35.00;31.80
57857;DHT22;43683;48.650;9.290;2023-06-19T13:48:37;34.80;31.80
57857;DHT22;43683;48.650;9.290;2023-06-19T13:51:03;34.90;31.90
57857;DHT22;43683;48.650;9.290;2023-06-19T13:53:28;35.10;31.60
57857;DHT22;43683;48.650;9.290;2023-06-19T13:55:55;35.20;31.50
57857;DHT22;43683;48.650;9.290;2023-06-19T13:58:21;35.20;31.60
57857;DHT22;43683;48.650;9.290;2023-06-19T14:00:46;35.30;31.40
57857;DHT22;43683;48.650;9.290;2023-06-19T14:03:13;35.60;31.10
57857;DHT22;43683;48.650;9.290;2023-06-19T14:05:38;35.80;31.00
57857;DHT22;43683;48.650;9.290;2023-06-19T14:08:04;35.90;30.60
57857;DHT22;43683;48.650;9.290;2023-06-19T14:10:30;36.10;30.70
57857;DHT22;43683;48.650;9.290;2023-06-19T14:12:56;36.00;30.60
57857;DHT22;43683;48.650;9.290;2023-06-19T14:15:21;36.20;30.40
57857;DHT22;43683;48.650;9.290;2023-06-19T14:17:47;36.20;30.40
57857;DHT22;43683;48.650;9.290;2023-06-19T14:20:12;35.70;30.70
57857;DHT22;43683;48.650;9.290;2023-06-19T14:22:38;35.70;30.90
57857;DHT22;43683;48.650;9.290;2023-06-19T14:25:04;35.70;30.90
57857;DHT22;43683;48.650;9.290;2023-06-19T14:27:29;35.90;30.80
57857;DHT22;43683;48.650;9.290;2023-06-19T14:29:55;36.10;31.30
57857;DHT22;43683;48.650;9.290;2023-06-19T14:32:22;36.20;30.30
57857;DHT22;43683;48.650;9.290;2023-06-19T14:34:49;36.30;30.30
57857;DHT22;43683;48.650;9.290;2023-06-19T14:37:14;35.90;30.40
57857;DHT22;43683;48.650;9.290;2023-06-19T14:39:40;35.80;30.70
57857;DHT22;43683;48.650;9.290;2023-06-19T14:42:05;35.80;30.50
57857;DHT22;43683;48.650;9.290;2023-06-19T14:44:32;35.40;30.80
57857;DHT22;43683;48.650;9.290;2023-06-19T14:47:00;35.20;31.10
57857;DHT22;43683;48.650;9.290;2023-06-19T14:49:25;34.70;31.50
57857;DHT22;43683;48.650;9.290;2023-06-19T14:51:51;34.60;31.40
57857;DHT22;43683;48.650;9.290;2023-06-19T14:54:16;34.60;31.50
57857;DHT22;43683;48.650;9.290;2023-06-19T14:56:43;34.40;31.60
57857;DHT22;43683;48.650;9.290;2023-06-19T14:59:10;34.20;31.60
57857;DHT22;43683;48.650;9.290;2023-06-19T15:01:35;34.30;31.50
57857;DHT22;43683;48.650;9.290;2023-06-19T15:04:01;34.40;31.60
57857;DHT22;43683;48.650;9.290;2023-06-19T15:06:26;34.20;31.70
57857;DHT22;43683;48.650;9.290;2023-06-19T15:08:52;33.70;32.00
57857;DHT22;43683;48.650;9.290;2023-06-19T15:11:17;33.50;32.10
57857;DHT22;43683;48.650;9.290;2023-06-19T15:13:43;33.30;32.10
57857;DHT22;43683;48.650;9.290;2023-06-19T15:16:09;33.10;32.30
57857;DHT22;43683;48.650;9.290;2023-06-19T15:18:37;33.00;32.50
57857;DHT22;43683;48.650;9.290;2023-06-19T15:21:03;32.80;32.90
57857;DHT22;43683;48.650;9.290;2023-06-19T15:23:31;32.60;33.00
57857;DHT22;43683;48.650;9.290;2023-06-19T15:25:56;32.60;33.00
57857;DHT22;43683;48.650;9.290;2023-06-19T15:28:22;32.80;33.10
57857;DHT22;43683;48.650;9.290;2023-06-19T15:30:48;33.30;32.70
57857;DHT22;43683;48.650;9.290;2023-06-19T15:33:13;33.60;32.10